KMOR

Details ICAO KMOR
Name Moore-Murrell
Region United States
Timezone America/New_York (UTC-5.0)
Plans Departing 0
Arriving 2
Stats Elevation 1,313 ft / 400 m (AMSL)
Location 36.179294° -83.375559°
Runways 1
Magnetic Variation 6.198° W
Sunrise 2017-12-13 12:37:29 UTC / 2017-12-13 07:37:29 Local
Sunset 2017-12-13 22:20:58 UTC / 2017-12-13 17:20:58 Local
Advertisement - Login to hide

Runways

ID Width Length Bearing (true) Bearing (mag) Surface Threshold Offset Overrun Length
05 98 ft / 30 m 5,699 ft / 1,737 m 49.30° 55.50° Asphalt 0 ft / 0 m 0 ft / 0 m
23 98 ft / 30 m 5,699 ft / 1,737 m 229.31° 235.51° Asphalt 0 ft / 0 m 0 ft / 0 m

Approach Navaids

Runway Type Ident Frequency Range Bearing (true) Bearing (mag) Slope Elevation
05 Localiser IMOR 109.50 MHz 18 nm / 33 km 49.28° 55.47° - 1,313 ft / 400 m (AMSL)
05 DME IMOR 109.50 MHz 18 nm / 33 km - - - 1,313 ft / 400 m (AMSL)

Map

Weather


0- 5 10 15 20 25 30 35+ Temperature / ° C

Clouds and Precipitation
Forecast for 2017-12-14 00:00 UTC. Updated an hour ago

Ground ~20,000 ft ~40,000 ft Winds

METAR

KMOR 132035Z AUTO 26009G15KT 10SM CLR 07/M16 A2973 RMK A01

TAF

Not found

Frequencies

Recorded 126.72 MHz AWOS 3
Approach 132.80 MHz KNOXVILLE APP/DEP
Unicom 122.80 MHz CTAF/UNICOM
Warning: Do not use this data for real-world aviation or navigation. No guarantee of current accuracy is given.